Time;durP1;ratioP1;P1;durP2;ratioP2;P2;SDS_P1;SDS_P2;PMS_P1;PMS_P2;Temp;Humidity;BMP_temperature;BMP_pressure;BME280_temperature;BME280_humidity;BME280_pressure;Samples;Min_cycle;Max_cycle;Signal;HPM_P1;HPM_P2
2021/05/02 00:01:05;;;;;;;3.53;1.40;;;;;;;11.00;80.23;97435.53;4995287;28;20032;-75
2021/05/02 00:03:31;;;;;;;3.30;0.93;;;;;;;10.71;81.46;97429.25;4994258;28;20572;-75
2021/05/02 00:05:57;;;;;;;3.85;1.02;;;;;;;10.66;81.28;97439.34;5015470;28;20026;-76
2021/05/02 00:08:22;;;;;;;3.28;1.10;;;;;;;10.76;81.17;97442.53;4996169;28;20578;-76
2021/05/02 00:10:48;;;;;;;2.83;0.93;;;;;;;10.85;81.16;97438.88;5012787;28;20538;-76
2021/05/02 00:13:14;;;;;;;3.97;1.50;;;;;;;10.99;80.72;97441.69;4992087;28;20025;-75
2021/05/02 00:15:39;;;;;;;5.00;2.08;;;;;;;10.74;81.00;97441.91;4991880;28;20053;-76
2021/05/02 00:18:05;;;;;;;4.15;2.10;;;;;;;10.66;80.52;97415.97;4991070;28;20044;-74
2021/05/02 00:20:31;;;;;;;4.40;1.60;;;;;;;10.68;81.38;97412.22;4987484;28;20030;-76
2021/05/02 00:23:00;;;;;;;4.63;2.67;;;;;;;10.89;80.38;97444.56;4993594;28;20395;-76
2021/05/02 00:25:30;;;;;;;4.15;1.77;;;;;;;10.57;81.77;97430.81;5001779;28;20032;-76
2021/05/02 00:27:55;;;;;;;5.15;2.67;;;;;;;10.65;80.83;97443.75;5001893;28;20033;-75
2021/05/02 00:30:23;;;;;;;8.00;3.78;;;;;;;10.59;82.48;97449.66;4994328;28;21828;-76
2021/05/02 00:32:51;;;;;;;5.22;2.45;;;;;;;10.40;82.67;97437.91;5003947;28;20044;-75
2021/05/02 00:35:18;;;;;;;4.03;2.10;;;;;;;10.69;82.24;97449.41;4994520;28;20030;-75
2021/05/02 00:37:44;;;;;;;3.50;1.50;;;;;;;10.60;81.77;97430.47;5004980;28;20033;-76
2021/05/02 00:40:12;;;;;;;3.60;1.45;;;;;;;10.88;81.23;97461.13;4991808;28;20037;-75
2021/05/02 00:42:41;;;;;;;5.72;3.20;;;;;;;10.76;81.12;97451.13;4980911;28;20419;-75
2021/05/02 00:45:08;;;;;;;8.20;5.35;;;;;;;10.75;81.61;97477.31;4975384;28;20018;-74
2021/05/02 00:47:37;;;;;;;4.72;2.25;;;;;;;10.64;81.35;97472.50;5015256;28;20033;-75
2021/05/02 00:50:09;;;;;;;3.63;1.30;;;;;;;10.84;81.04;97476.28;5001071;28;20742;-76
2021/05/02 00:52:38;;;;;;;4.13;1.00;;;;;;;10.95;80.85;97477.66;4994006;28;20069;-77
2021/05/02 00:55:08;;;;;;;4.13;0.82;;;;;;;11.06;80.93;97473.81;5007621;28;20021;-76
2021/05/02 00:57:54;;;;;;;2.33;0.77;;;;;;;10.94;80.41;97447.44;5005409;28;20052;-77
2021/05/02 01:00:20;;;;;;;2.95;0.73;;;;;;;11.15;80.02;97464.97;4982721;28;20032;-76
2021/05/02 01:02:49;;;;;;;3.33;0.82;;;;;;;11.18;80.07;97469.81;4992600;28;20057;-76
2021/05/02 01:05:14;;;;;;;2.30;0.80;;;;;;;10.95;80.49;97431.66;4998960;28;20022;-76
2021/05/02 01:07:43;;;;;;;2.53;0.80;;;;;;;10.99;79.55;97444.28;4987711;28;20091;-77
2021/05/02 01:10:11;;;;;;;2.42;0.80;;;;;;;11.18;80.20;97475.03;4978025;28;20076;-76
2021/05/02 01:12:57;;;;;;;2.17;0.70;;;;;;;11.01;80.18;97461.38;5007756;28;20022;-77
2021/05/02 01:15:27;;;;;;;2.90;0.95;;;;;;;11.01;80.23;97466.56;4989502;28;20030;-77
2021/05/02 01:17:59;;;;;;;5.72;2.78;;;;;;;10.98;79.64;97453.91;4991304;28;20060;-77
2021/05/02 01:20:27;;;;;;;5.80;2.20;;;;;;;10.89;79.90;97436.75;4980745;28;20029;-76
2021/05/02 01:22:58;;;;;;;4.95;1.85;;;;;;;10.99;79.73;97455.53;4992844;28;20145;-76
2021/05/02 01:25:23;;;;;;;4.75;1.80;;;;;;;10.81;80.13;97431.63;4972823;28;20029;-76
2021/05/02 01:27:54;;;;;;;3.20;1.00;;;;;;;11.02;79.42;97459.56;4991577;28;20391;-76
2021/05/02 01:30:21;;;;;;;4.55;1.60;;;;;;;11.01;78.85;97458.75;4991728;28;20115;-76
2021/05/02 01:32:47;;;;;;;3.80;1.30;;;;;;;11.06;78.68;97463.41;4998861;28;20018;-76
2021/05/02 01:35:13;;;;;;;4.45;1.65;;;;;;;11.01;79.08;97453.56;4988296;28;20025;-76
2021/05/02 01:37:38;;;;;;;8.18;4.43;;;;;;;10.83;79.08;97442.66;4998082;28;20041;-75
2021/05/02 01:40:05;;;;;;;5.43;2.65;;;;;;;10.73;79.32;97438.50;4992143;28;20039;-76
2021/05/02 01:42:30;;;;;;;4.50;2.20;;;;;;;10.85;79.27;97456.28;4981557;28;20030;-75
2021/05/02 01:44:56;;;;;;;4.40;2.08;;;;;;;10.78;78.66;97449.16;4991520;28;20064;-76
2021/05/02 01:47:22;;;;;;;4.38;2.13;;;;;;;11.02;78.82;97459.56;5002292;28;20026;-76
2021/05/02 01:49:51;;;;;;;4.20;1.80;;;;;;;10.77;79.73;97439.78;4994539;28;20022;-76
2021/05/02 01:52:17;;;;;;;3.33;1.35;;;;;;;10.94;79.57;97474.25;4987734;28;20030;-74
2021/05/02 01:54:44;;;;;;;4.28;1.60;;;;;;;10.74;80.51;97484.31;4985684;28;20030;-74
2021/05/02 01:57:09;;;;;;;3.42;1.17;;;;;;;10.55;81.77;97482.97;4989453;28;20034;-75
2021/05/02 01:59:37;;;;;;;3.03;0.90;;;;;;;10.37;81.85;97470.25;4992840;28;20030;-76
2021/05/02 02:02:03;;;;;;;3.47;0.80;;;;;;;10.30;82.44;97490.06;4985841;28;20030;-75
2021/05/02 02:04:31;;;;;;;4.18;1.45;;;;;;;10.35;82.09;97481.81;4986131;28;20050;-77
2021/05/02 02:06:57;;;;;;;4.43;1.30;;;;;;;10.52;81.44;97469.50;4987692;28;20053;-76
2021/05/02 02:09:23;;;;;;;3.42;1.50;;;;;;;10.73;80.40;97476.66;4982715;28;20038;-77
2021/05/02 02:11:51;;;;;;;5.25;1.85;;;;;;;10.85;80.30;97485.69;4992128;28;20064;-77
2021/05/02 02:14:16;;;;;;;3.97;1.27;;;;;;;10.78;79.18;97454.38;5003659;28;20029;-76
2021/05/02 02:16:42;;;;;;;3.67;0.88;;;;;;;10.91;78.80;97468.59;4992462;28;20549;-76
2021/05/02 02:19:08;;;;;;;3.38;0.60;;;;;;;10.79;78.75;97444.81;4984893;28;20435;-77
2021/05/02 02:21:33;;;;;;;1.83;0.52;;;;;;;10.93;78.46;97462.25;4999753;28;20026;-77
2021/05/02 02:24:00;;;;;;;1.77;0.60;;;;;;;10.95;78.56;97462.88;4997910;28;20048;-76
2021/05/02 02:26:34;;;;;;;1.25;0.40;;;;;;;11.03;78.13;97458.59;5003955;28;20092;-77
2021/05/02 02:29:02;;;;;;;1.42;0.50;;;;;;;10.87;77.65;97415.31;4999846;28;20076;-77
2021/05/02 02:31:33;;;;;;;3.70;1.35;;;;;;;11.02;77.80;97429.16;4983046;28;20176;-76
2021/05/02 02:33:58;;;;;;;1.10;0.50;;;;;;;11.06;77.88;97440.84;4998223;28;20084;-76
2021/05/02 02:36:24;;;;;;;1.52;0.40;;;;;;;11.06;77.80;97447.81;4991409;28;20034;-77
2021/05/02 02:38:49;;;;;;;2.17;0.50;;;;;;;10.93;77.02;97431.03;5002199;28;20034;-78
2021/05/02 02:41:17;;;;;;;1.77;0.60;;;;;;;10.86;78.19;97424.91;4998852;28;20118;-77
2021/05/02 02:43:51;;;;;;;3.03;0.60;;;;;;;10.89;78.13;97402.94;4984124;28;20524;-75
2021/05/02 02:46:18;;;;;;;2.38;0.50;;;;;;;10.96;78.01;97429.88;4997784;28;20047;-77
2021/05/02 02:48:46;;;;;;;2.42;0.60;;;;;;;10.91;78.03;97426.97;5019376;28;20072;-76
2021/05/02 02:51:13;;;;;;;1.80;0.60;;;;;;;10.72;78.49;97405.69;4999808;28;20096;-77
2021/05/02 02:53:39;;;;;;;1.50;0.40;;;;;;;10.70;76.48;97415.44;5004677;28;20113;-77
2021/05/02 02:56:06;;;;;;;1.80;0.50;;;;;;;10.81;76.67;97422.03;4987301;28;20622;-76
2021/05/02 02:58:40;;;;;;;0.95;0.30;;;;;;;10.70;76.60;97420.66;5003554;28;20052;-78
2021/05/02 03:01:06;;;;;;;2.42;0.60;;;;;;;10.73;76.45;97440.28;4997369;28;20060;-76
2021/05/02 03:03:33;;;;;;;2.00;0.38;;;;;;;10.65;77.62;97435.16;4987704;28;20050;-76
2021/05/02 03:06:01;;;;;;;2.00;0.45;;;;;;;10.67;77.47;97426.19;4982340;28;20104;-76
2021/05/02 03:08:29;;;;;;;3.10;0.50;;;;;;;10.81;76.71;97431.63;4984695;28;20029;-77
2021/05/02 03:10:54;;;;;;;1.85;0.60;;;;;;;10.38;76.86;97372.31;5001584;28;20038;-76
2021/05/02 03:13:20;;;;;;;1.55;0.50;;;;;;;10.62;77.75;97412.09;4992299;28;20562;-76
2021/05/02 03:15:47;;;;;;;1.85;0.47;;;;;;;10.79;77.67;97444.81;4998770;28;20030;-77
2021/05/02 03:18:20;;;;;;;2.83;0.57;;;;;;;10.33;78.33;97430.00;4999550;28;20030;-77
2021/05/02 03:20:47;;;;;;;5.00;0.65;;;;;;;10.35;78.18;97443.63;4987762;28;20130;-75
2021/05/02 03:23:17;;;;;;;3.03;0.40;;;;;;;10.55;76.74;97450.97;4997895;28;20076;-77
2021/05/02 03:25:44;;;;;;;1.40;0.50;;;;;;;10.40;75.63;97440.50;4998812;28;20021;-77
2021/05/02 03:28:17;;;;;;;0.75;0.30;;;;;;;10.67;71.29;97457.38;5002098;28;20105;-76
2021/05/02 03:30:44;;;;;;;1.08;0.38;;;;;;;10.64;71.96;97441.31;4999709;28;20400;-77
2021/05/02 03:33:11;;;;;;;1.27;0.30;;;;;;;10.87;72.08;97462.13;5002584;28;20026;-76
2021/05/02 03:35:40;;;;;;;0.82;0.30;;;;;;;10.93;72.29;97462.25;4989289;28;20026;-77
2021/05/02 03:38:41;;;;;;;1.02;0.30;;;;;;;10.95;72.13;97464.66;4999259;28;20468;-76
2021/05/02 03:41:07;;;;;;;1.33;0.40;;;;;;;10.87;73.80;97443.91;4971480;28;20022;-77
2021/05/02 03:43:32;;;;;;;1.25;0.40;;;;;;;11.00;73.33;97458.94;4994178;28;20049;-77
2021/05/02 03:45:57;;;;;;;2.63;1.38;;;;;;;10.93;73.12;97451.84;4998683;28;20570;-76
2021/05/02 03:48:23;;;;;;;1.45;0.43;;;;;;;10.96;72.70;97461.88;4984988;28;20041;-76
2021/05/02 03:50:48;;;;;;;1.02;0.38;;;;;;;10.88;72.74;97451.56;4997051;28;20028;-75
2021/05/02 03:53:14;;;;;;;1.10;0.40;;;;;;;10.98;74.10;97456.50;4993573;28;20091;-76
2021/05/02 03:55:44;;;;;;;2.55;0.40;;;;;;;11.05;74.95;97459.22;4999931;28;20034;-77
2021/05/02 03:58:17;;;;;;;1.65;0.30;;;;;;;10.92;74.84;97439.81;5001891;28;20036;-76
2021/05/02 04:00:44;;;;;;;0.95;0.30;;;;;;;10.93;75.29;97470.03;4989925;28;20041;-76
2021/05/02 04:03:13;;;;;;;2.33;0.28;;;;;;;10.91;74.53;97465.97;4994312;28;20067;-77
2021/05/02 04:05:38;;;;;;;2.60;0.40;;;;;;;10.76;74.87;97452.94;5003397;28;20021;-77
2021/05/02 04:08:04;;;;;;;2.67;0.50;;;;;;;10.69;75.21;97446.81;4989835;28;20030;-75
2021/05/02 04:10:29;;;;;;;2.25;0.40;;;;;;;10.80;74.15;97456.00;4998399;28;20029;-77
2021/05/02 04:12:55;;;;;;;6.25;0.50;;;;;;;10.72;74.69;97441.28;4983383;28;20029;-77
2021/05/02 04:15:20;;;;;;;1.52;0.38;;;;;;;10.85;74.78;97462.28;4995900;28;20051;-77
2021/05/02 04:17:46;;;;;;;0.77;0.30;;;;;;;10.76;74.65;97447.75;4997491;28;20101;-76
2021/05/02 04:20:12;;;;;;;1.50;0.30;;;;;;;10.81;74.09;97473.22;5000896;28;20029;-77
2021/05/02 04:22:38;;;;;;;0.77;0.28;;;;;;;10.80;73.54;97482.81;4999931;28;20037;-76
2021/05/02 04:25:05;;;;;;;1.17;0.30;;;;;;;10.82;73.69;97483.44;5003011;28;20033;-77
2021/05/02 04:27:31;;;;;;;1.85;0.30;;;;;;;10.81;73.97;97489.63;4984376;28;20030;-77
2021/05/02 04:29:57;;;;;;;2.83;0.30;;;;;;;10.74;74.78;97467.91;4998842;28;20561;-77
2021/05/02 04:32:24;;;;;;;1.60;0.20;;;;;;;10.75;72.87;97477.31;5015799;28;20026;-77
2021/05/02 04:34:49;;;;;;;0.70;0.20;;;;;;;10.82;73.71;97498.22;5000460;28;20495;-77
2021/05/02 04:37:14;;;;;;;1.02;0.30;;;;;;;10.90;73.25;97509.41;4999203;28;20037;-74
2021/05/02 04:39:40;;;;;;;1.15;0.28;;;;;;;10.86;71.70;97509.91;4984063;28;20037;-76
2021/05/02 04:42:06;;;;;;;0.88;0.20;;;;;;;10.79;71.63;97502.00;4996114;28;20110;-76
2021/05/02 04:44:32;;;;;;;0.50;0.20;;;;;;;10.78;72.14;97503.78;4997595;28;20453;-76
2021/05/02 04:46:57;;;;;;;2.63;0.40;;;;;;;10.87;72.73;97512.34;4978927;28;20105;-76
2021/05/02 04:49:23;;;;;;;2.10;0.20;;;;;;;10.91;73.14;97523.19;4996592;28;20033;-76
2021/05/02 04:51:49;;;;;;;1.85;0.30;;;;;;;11.06;73.52;97546.66;5007743;28;20026;-76
2021/05/02 04:54:14;;;;;;;2.28;0.30;;;;;;;11.03;72.55;97531.41;5002024;28;20032;-75
2021/05/02 04:56:40;;;;;;;0.15;0.10;;;;;;;11.10;70.83;97540.16;4982687;28;20029;-77
2021/05/02 04:59:07;;;;;;;0.65;0.13;;;;;;;11.16;72.61;97560.25;4992238;28;20033;-75
2021/05/02 05:01:33;;;;;;;2.65;0.32;;;;;;;11.19;71.96;97565.13;4981408;28;20080;-76
2021/05/02 05:03:59;;;;;;;2.03;0.30;;;;;;;11.15;72.11;97558.63;4998780;28;20797;-75
2021/05/02 05:06:24;;;;;;;2.60;0.35;;;;;;;11.24;72.15;97565.38;4999611;28;20022;-76
2021/05/02 05:08:51;;;;;;;4.38;0.60;;;;;;;11.21;72.53;97568.34;4989444;28;20058;-76
2021/05/02 05:11:16;;;;;;;0.68;0.25;;;;;;;11.19;71.09;97564.28;4994997;28;20030;-74
2021/05/02 05:13:42;;;;;;;2.25;0.40;;;;;;;11.29;69.28;97573.47;4994029;28;20108;-76
2021/05/02 05:16:07;;;;;;;2.30;0.30;;;;;;;11.28;69.32;97584.91;4991585;28;20666;-76
2021/05/02 05:18:33;;;;;;;0.75;0.30;;;;;;;11.27;67.19;97580.66;4984365;28;20041;-75
2021/05/02 05:20:59;;;;;;;0.93;0.30;;;;;;;11.23;61.69;97581.19;4991836;28;20018;-77
2021/05/02 05:23:24;;;;;;;1.55;0.35;;;;;;;11.31;63.15;97581.91;5012990;28;20025;-76
2021/05/02 05:25:50;;;;;;;0.82;0.32;;;;;;;11.14;62.83;97539.63;4995459;28;20042;-76
2021/05/02 05:28:16;;;;;;;0.77;0.20;;;;;;;11.52;64.27;97586.50;4962722;28;20669;-77
2021/05/02 05:30:41;;;;;;;1.52;0.30;;;;;;;11.57;67.88;97582.53;5018237;28;20045;-74
2021/05/02 05:33:08;;;;;;;1.65;0.40;;;;;;;11.48;70.19;97581.78;5029126;28;20053;-74
2021/05/02 05:35:34;;;;;;;2.13;0.50;;;;;;;11.43;69.52;97578.94;5033790;28;20029;-75
2021/05/02 05:38:00;;;;;;;1.10;0.20;;;;;;;11.50;63.57;97585.84;5043334;28;20033;-75
2021/05/02 05:40:27;;;;;;;1.27;0.20;;;;;;;11.57;61.85;97592.94;5036916;28;20088;-76
2021/05/02 05:42:53;;;;;;;1.23;0.10;;;;;;;11.48;60.88;97569.59;5049834;28;20044;-75
2021/05/02 05:45:19;;;;;;;1.40;0.20;;;;;;;11.69;57.33;97587.16;5037414;28;20021;-76
2021/05/02 05:47:53;;;;;;;0.68;0.20;;;;;;;11.70;59.26;97580.13;5028203;28;20056;-75
2021/05/02 05:50:20;;;;;;;1.23;0.20;;;;;;;11.75;58.45;97583.03;5020801;28;20036;-76
2021/05/02 05:52:46;;;;;;;0.40;0.20;;;;;;;11.90;57.19;97598.69;5047753;28;20044;-76
2021/05/02 05:55:13;;;;;;;1.80;0.20;;;;;;;11.98;57.58;97610.84;5035078;28;20078;-75
2021/05/02 05:57:39;;;;;;;0.40;0.17;;;;;;;11.97;57.17;97611.81;5028635;28;20552;-76
2021/05/02 06:00:08;;;;;;;0.75;0.15;;;;;;;12.03;56.91;97611.09;5022554;28;20061;-75
2021/05/02 06:02:34;;;;;;;2.60;0.30;;;;;;;12.12;56.72;97620.50;5011577;28;20144;-75
2021/05/02 06:04:59;;;;;;;0.52;0.20;;;;;;;12.03;56.47;97598.09;5010923;28;20026;-75
2021/05/02 06:07:25;;;;;;;0.25;0.13;;;;;;;12.23;56.39;97622.66;4993886;28;20091;-77
2021/05/02 06:09:51;;;;;;;0.45;0.17;;;;;;;12.24;56.57;97615.63;5026415;28;20026;-77
2021/05/02 06:12:16;;;;;;;0.22;0.10;;;;;;;12.10;55.78;97598.97;4978540;28;20026;-77
2021/05/02 06:14:42;;;;;;;2.78;0.20;;;;;;;12.31;55.45;97621.75;4988484;28;20041;-70
2021/05/02 06:17:07;;;;;;;0.20;0.10;;;;;;;12.32;54.24;97615.56;5000312;28;20026;-69
2021/05/02 06:19:33;;;;;;;0.28;0.13;;;;;;;12.40;53.88;97628.47;5003312;28;20026;-69
2021/05/02 06:21:58;;;;;;;1.00;0.25;;;;;;;12.40;54.30;97631.09;4993596;28;20679;-70
2021/05/02 06:24:24;;;;;;;0.40;0.10;;;;;;;12.35;53.30;97632.63;5000270;28;20072;-69
2021/05/02 06:26:50;;;;;;;0.50;0.20;;;;;;;12.25;52.54;97610.25;5006252;28;20018;-70
2021/05/02 06:29:16;;;;;;;0.82;0.20;;;;;;;12.45;52.52;97627.97;5009523;28;20056;-70
2021/05/02 06:31:42;;;;;;;0.45;0.10;;;;;;;12.46;52.33;97632.97;5005594;28;20037;-70
2021/05/02 06:34:07;;;;;;;1.27;0.30;;;;;;;12.51;52.19;97627.22;5003485;28;20029;-71
2021/05/02 06:36:33;;;;;;;0.77;0.28;;;;;;;12.47;49.67;97632.00;5005493;28;20038;-71
2021/05/02 06:38:58;;;;;;;1.20;0.20;;;;;;;12.54;49.65;97628.66;5005241;28;20034;-70
2021/05/02 06:41:24;;;;;;;0.38;0.10;;;;;;;12.66;47.99;97629.81;5005154;28;20478;-70
2021/05/02 06:43:49;;;;;;;0.20;0.10;;;;;;;12.55;48.08;97615.44;4989131;28;20116;-70
2021/05/02 06:46:27;;;;;;;0.73;0.20;;;;;;;12.71;48.26;97637.09;5002867;28;20112;-70
2021/05/02 06:49:05;;;;;;;1.90;0.40;;;;;;;12.71;47.38;97627.47;4995097;28;20036;-70
2021/05/02 06:51:31;;;;;;;0.70;0.20;;;;;;;12.70;47.94;97633.66;4994618;28;20026;-70
2021/05/02 06:53:57;;;;;;;0.75;0.25;;;;;;;12.76;49.23;97645.16;4998927;28;20035;-69
2021/05/02 06:56:24;;;;;;;0.30;0.15;;;;;;;12.77;48.98;97638.97;4984795;28;20466;-70
2021/05/02 06:58:53;;;;;;;4.80;1.90;;;;;;;12.74;49.03;97645.38;4998305;28;20104;-69
2021/05/02 07:01:19;;;;;;;7.05;2.00;;;;;;;12.67;49.79;97637.47;4997059;28;20025;-71
2021/05/02 07:03:45;;;;;;;6.05;2.63;;;;;;;12.68;50.46;97635.66;5011987;28;20033;-72
2021/05/02 07:06:11;;;;;;;7.05;4.40;;;;;;;12.77;49.96;97650.22;4996674;28;20501;-73
2021/05/02 07:08:36;;;;;;;12.80;10.80;;;;;;;12.81;50.33;97646.28;4997218;28;20040;-73
2021/05/02 07:11:03;;;;;;;11.82;10.38;;;;;;;12.78;51.20;97635.38;5001026;28;20088;-73
2021/05/02 07:13:29;;;;;;;11.23;8.90;;;;;;;12.93;51.42;97648.41;5014740;28;20029;-73
2021/05/02 07:15:56;;;;;;;7.50;5.85;;;;;;;12.93;51.32;97641.38;4987788;28;20026;-75
2021/05/02 07:18:23;;;;;;;8.52;6.63;;;;;;;12.88;51.53;97639.28;4985015;28;20024;-73
2021/05/02 07:20:51;;;;;;;5.50;3.75;;;;;;;12.83;51.30;97631.25;5003436;28;20044;-73
2021/05/02 07:23:17;;;;;;;4.30;2.15;;;;;;;12.98;51.70;97653.88;4983956;28;20854;-72
2021/05/02 07:25:42;;;;;;;3.55;1.50;;;;;;;13.04;51.37;97651.34;5001860;28;20026;-71
2021/05/02 07:28:09;;;;;;;2.08;0.70;;;;;;;13.10;52.36;97649.78;5001023;28;20026;-72
2021/05/02 07:30:34;;;;;;;1.98;0.30;;;;;;;12.96;53.00;97651.44;4995624;28;20034;-70
2021/05/02 07:33:00;;;;;;;0.88;0.30;;;;;;;13.11;50.61;97668.88;4982271;28;20041;-70
2021/05/02 07:35:25;;;;;;;1.63;0.60;;;;;;;13.05;49.78;97662.56;5025020;28;20065;-70
2021/05/02 07:37:51;;;;;;;1.33;0.40;;;;;;;13.06;47.66;97658.97;5003203;28;20022;-70
2021/05/02 07:40:17;;;;;;;2.17;0.68;;;;;;;13.16;47.89;97675.16;5004525;28;20018;-71
2021/05/02 07:42:42;;;;;;;1.58;0.50;;;;;;;13.11;47.03;97658.44;5004628;28;20042;-71
2021/05/02 07:45:08;;;;;;;1.35;0.40;;;;;;;13.23;46.68;97662.16;5002455;28;20053;-70
2021/05/02 07:47:35;;;;;;;1.67;0.40;;;;;;;13.36;44.25;97664.13;4998560;28;20030;-71
2021/05/02 07:50:03;;;;;;;1.08;0.30;;;;;;;13.48;42.13;97669.69;4983896;28;20125;-71
2021/05/02 07:52:29;;;;;;;1.83;0.40;;;;;;;13.60;41.03;97668.22;4986459;28;20087;-71
2021/05/02 07:54:54;;;;;;;1.15;0.40;;;;;;;13.62;42.24;97672.25;4981583;28;20030;-73
2021/05/02 07:57:20;;;;;;;1.58;0.40;;;;;;;13.70;40.28;97675.72;4997092;28;20514;-70
2021/05/02 07:59:46;;;;;;;1.65;0.50;;;;;;;14.04;40.22;97688.88;4997879;28;20121;-73
2021/05/02 08:02:12;;;;;;;0.90;0.30;;;;;;;14.22;38.30;97672.72;5000660;28;20033;-73
2021/05/02 08:04:39;;;;;;;1.10;0.20;;;;;;;14.28;38.06;97693.88;4994758;28;20057;-73
2021/05/02 08:07:08;;;;;;;1.23;0.40;;;;;;;14.23;41.22;97676.13;4983820;28;20026;-72
2021/05/02 08:09:34;;;;;;;2.85;0.70;;;;;;;14.63;42.09;97699.16;4998391;28;20056;-72
2021/05/02 08:12:00;;;;;;;6.07;0.52;;;;;;;14.98;42.72;97698.09;5000887;28;20628;-71
2021/05/02 08:14:26;;;;;;;2.40;0.73;;;;;;;15.38;39.81;97706.09;4997100;28;20034;-73
2021/05/02 08:16:52;;;;;;;11.82;2.00;;;;;;;15.63;40.46;97696.91;5000502;28;20045;-72
2021/05/02 08:19:18;;;;;;;100.75;19.20;;;;;;;15.91;43.78;97709.84;4997436;28;20081;-72
2021/05/02 08:21:43;;;;;;;8.15;2.17;;;;;;;16.06;39.18;97692.13;4980446;28;20701;-73
2021/05/02 08:24:09;;;;;;;5.88;1.50;;;;;;;16.45;38.19;97718.53;5000360;28;20100;-73
2021/05/02 08:26:35;;;;;;;8.80;4.85;;;;;;;16.50;37.94;97700.31;4980169;28;20075;-73
2021/05/02 08:29:00;;;;;;;8.65;4.57;;;;;;;16.72;37.35;97706.97;4997610;28;20038;-71
2021/05/02 08:31:27;;;;;;;4.38;1.33;;;;;;;16.95;38.10;97729.34;4982615;28;20033;-72
2021/05/02 08:33:53;;;;;;;2.72;0.90;;;;;;;16.91;37.43;97709.75;4981313;28;20033;-71
2021/05/02 08:36:19;;;;;;;1.85;0.52;;;;;;;17.06;34.74;97723.44;4994696;28;20544;-71
2021/05/02 08:38:44;;;;;;;3.30;0.52;;;;;;;17.02;34.73;97718.81;5006263;28;20526;-70
2021/05/02 08:41:10;;;;;;;5.10;0.40;;;;;;;17.00;34.17;97724.28;4994284;28;20112;-71
2021/05/02 08:43:35;;;;;;;1.95;0.40;;;;;;;16.90;35.56;97729.97;4981229;28;20037;-71
2021/05/02 08:46:01;;;;;;;2.25;0.70;;;;;;;16.91;35.42;97720.25;4984827;28;20369;-71
2021/05/02 08:48:27;;;;;;;0.77;0.28;;;;;;;16.90;34.53;97732.59;4999592;28;20109;-75
2021/05/02 08:50:55;;;;;;;1.63;0.40;;;;;;;16.63;32.86;97728.38;5002297;28;20034;-74
2021/05/02 08:53:21;;;;;;;2.45;0.50;;;;;;;16.44;33.38;97727.41;4987047;28;20113;-73
2021/05/02 08:55:47;;;;;;;2.35;0.60;;;;;;;16.54;33.81;97730.41;4999927;28;20431;-74
2021/05/02 08:58:21;;;;;;;1.17;0.40;;;;;;;16.53;34.86;97723.53;4996249;28;20042;-73
2021/05/02 09:00:50;;;;;;;1.27;0.32;;;;;;;16.59;34.99;97729.78;5000251;28;20495;-74
2021/05/02 09:03:16;;;;;;;1.40;0.30;;;;;;;16.65;35.83;97731.63;4996987;28;20047;-74
2021/05/02 09:05:48;;;;;;;0.52;0.20;;;;;;;16.59;34.95;97716.66;5006619;28;20030;-74
2021/05/02 09:08:30;;;;;;;0.75;0.20;;;;;;;16.61;34.12;97733.84;4996049;28;20029;-74
2021/05/02 09:10:56;;;;;;;0.98;0.40;;;;;;;16.66;32.94;97741.88;5007368;28;20053;-72
2021/05/02 09:13:21;;;;;;;0.98;0.40;;;;;;;16.70;33.19;97739.66;4995985;28;20056;-73
2021/05/02 09:16:02;;;;;;;0.32;0.30;;;;;;;16.75;32.10;97744.31;5011309;28;20037;-73
2021/05/02 09:18:43;;;;;;;1.30;0.50;;;;;;;16.87;32.01;97742.69;4998439;28;20030;-73
2021/05/02 09:21:34;;;;;;;1.25;0.50;;;;;;;16.93;33.03;97751.56;4991639;28;20052;-73
2021/05/02 09:24:00;;;;;;;1.27;0.30;;;;;;;16.93;32.00;97748.94;4994620;28;20065;-72
2021/05/02 09:26:34;;;;;;;3.40;1.10;;;;;;;16.84;32.40;97741.28;4991453;28;20018;-73
2021/05/02 09:29:03;;;;;;;3.45;0.90;;;;;;;16.99;31.47;97748.91;4989398;28;20131;-73
2021/05/02 09:31:30;;;;;;;0.80;0.30;;;;;;;17.05;30.59;97742.03;4993760;28;20072;-74
2021/05/02 09:34:11;;;;;;;0.70;0.25;;;;;;;17.08;30.08;97744.25;5017356;28;20570;-73
2021/05/02 09:36:56;;;;;;;0.40;0.20;;;;;;;17.41;31.76;97749.38;4995791;28;20033;-73
2021/05/02 09:39:49;;;;;;;1.13;0.32;;;;;;;17.55;32.31;97755.34;4994188;28;20022;-73
2021/05/02 09:42:22;;;;;;;1.50;0.40;;;;;;;17.61;31.30;97730.03;4996308;28;20018;-74
2021/05/02 09:44:53;;;;;;;1.45;0.40;;;;;;;17.92;33.84;97744.25;4994689;28;20615;-72
2021/05/02 09:47:34;;;;;;;1.83;0.20;;;;;;;17.98;30.33;97748.66;5000461;28;20020;-72
2021/05/02 09:50:09;;;;;;;0.98;0.30;;;;;;;18.01;32.78;97742.97;5002620;28;20494;-74
2021/05/02 09:52:48;;;;;;;0.30;0.17;;;;;;;17.81;27.33;97743.88;5002152;28;20124;-74
2021/05/02 09:55:21;;;;;;;0.43;0.10;;;;;;;17.93;29.24;97754.56;5000749;28;20029;-74
2021/05/02 09:58:04;;;;;;;0.57;0.10;;;;;;;17.83;27.23;97747.13;5002100;28;20364;-73
2021/05/02 10:00:40;;;;;;;1.45;0.20;;;;;;;17.75;27.42;97738.66;5005724;28;20029;-75
2021/05/02 10:03:11;;;;;;;0.65;0.10;;;;;;;17.90;27.59;97741.03;4999708;28;20529;-75
2021/05/02 10:06:06;;;;;;;0.22;0.10;;;;;;;17.91;26.28;97761.06;4997056;28;20109;-76
2021/05/02 10:08:40;;;;;;;0.70;0.25;;;;;;;17.83;27.61;97735.78;5000247;28;20539;-75
2021/05/02 10:11:07;;;;;;;0.15;0.10;;;;;;;17.97;27.80;97754.94;4981547;28;20042;-74
2021/05/02 10:13:34;;;;;;;0.57;0.20;;;;;;;18.00;30.46;97750.06;5018035;28;20462;-74
2021/05/02 10:16:00;;;;;;;1.42;0.28;;;;;;;18.14;30.35;97752.59;5000177;28;20030;-75
2021/05/02 10:18:25;;;;;;;1.83;0.40;;;;;;;18.02;30.89;97769.06;5001383;28;20022;-77
2021/05/02 10:20:51;;;;;;;1.13;0.28;;;;;;;17.82;29.64;97753.38;4998316;28;20030;-74
2021/05/02 10:23:17;;;;;;;0.75;0.30;;;;;;;17.93;28.07;97764.28;4989025;28;20029;-76
2021/05/02 10:25:45;;;;;;;2.22;0.50;;;;;;;17.91;28.60;97774.22;5001317;28;20030;-75
2021/05/02 10:28:27;;;;;;;2.47;0.70;;;;;;;17.86;30.20;97765.09;5003207;28;20021;-73
2021/05/02 10:30:54;;;;;;;41.20;26.02;;;;;;;17.98;30.72;97780.19;4995994;28;20061;-75
2021/05/02 10:33:40;;;;;;;28.67;21.90;;;;;;;18.01;27.96;97758.75;5006188;28;20099;-76
2021/05/02 10:36:19;;;;;;;26.05;18.25;;;;;;;18.20;28.96;97759.63;4988468;28;20045;-77
2021/05/02 10:38:51;;;;;;;11.35;7.70;;;;;;;18.24;28.28;97776.59;4990385;28;20694;-76
2021/05/02 10:41:44;;;;;;;17.63;11.02;;;;;;;18.12;27.76;97768.56;4992840;28;20082;-76
2021/05/02 10:44:09;;;;;;;8.23;3.65;;;;;;;18.16;27.98;97768.94;4968571;28;20487;-76
2021/05/02 10:46:44;;;;;;;21.65;7.95;;;;;;;18.20;29.32;97773.59;4988693;28;20033;-76
2021/05/02 10:49:21;;;;;;;1.75;0.60;;;;;;;18.10;27.26;97746.94;4988843;28;20481;-74
2021/05/02 10:51:54;;;;;;;2.78;0.60;;;;;;;18.14;25.52;97766.53;4999324;28;20034;-74
2021/05/02 10:54:28;;;;;;;1.10;0.40;;;;;;;17.99;25.52;97756.31;5000564;28;20113;-75
2021/05/02 10:56:56;;;;;;;1.63;0.47;;;;;;;17.71;26.94;97756.69;5011731;28;20025;-73
2021/05/02 10:59:24;;;;;;;1.50;0.50;;;;;;;17.67;29.82;97764.19;4995471;28;20499;-74
2021/05/02 11:01:50;;;;;;;1.48;0.50;;;;;;;17.69;29.81;97779.75;5002239;28;20796;-74
2021/05/02 11:04:16;;;;;;;1.92;0.40;;;;;;;17.77;28.35;97773.44;4985796;28;20029;-73
2021/05/02 11:06:41;;;;;;;1.80;0.50;;;;;;;17.94;26.99;97776.41;4990687;28;20080;-76
2021/05/02 11:09:09;;;;;;;2.00;0.50;;;;;;;17.93;27.47;97764.28;4992003;28;20266;-74
2021/05/02 11:11:42;;;;;;;10.23;6.38;;;;;;;18.04;28.72;97764.38;4993583;28;20040;-72
2021/05/02 11:14:49;;;;;;;12.50;7.35;;;;;;;17.95;28.22;97762.25;5005647;28;20037;-74
2021/05/02 11:16:58;;;;;;;5.68;3.15;;;;;;;18.15;27.24;97762.91;4992817;28;20034;-73
2021/05/02 11:19:24;;;;;;;6.55;2.90;;;;;;;18.27;26.94;97754.31;4999500;28;20048;-73
2021/05/02 11:21:50;;;;;;;3.28;1.27;;;;;;;18.17;27.71;97768.75;4989393;28;20553;-74
2021/05/02 11:24:20;;;;;;;5.55;2.78;;;;;;;18.17;27.54;97763.47;4989560;28;20129;-74
2021/05/02 11:27:20;;;;;;;4.80;2.13;;;;;;;18.28;27.80;97764.63;4988824;28;20018;-73
2021/05/02 11:29:55;;;;;;;7.65;4.50;;;;;;;18.37;25.55;97763.31;4989019;28;20030;-73
2021/05/02 11:32:26;;;;;;;2.65;0.88;;;;;;;18.54;25.83;97758.31;4993038;28;20032;-76
2021/05/02 11:35:20;;;;;;;4.85;1.92;;;;;;;18.67;26.18;97760.00;4999284;28;20739;-74
2021/05/02 11:37:45;;;;;;;5.57;2.88;;;;;;;18.57;28.31;97763.16;4997069;28;20140;-75